createdAt,value
2018-06-12T00:01:20.487Z,5.17
2018-06-12T00:03:48.047Z,5.83
2018-06-12T00:06:15.627Z,6.43
2018-06-12T00:08:43.166Z,5.30
2018-06-12T00:11:10.724Z,4.70
2018-06-12T00:13:38.235Z,4.50
2018-06-12T00:16:05.799Z,5.17
2018-06-12T00:18:33.355Z,5.37
2018-06-12T00:21:01.015Z,5.00
2018-06-12T00:23:28.591Z,4.77
2018-06-12T00:25:56.223Z,4.73
2018-06-12T00:28:23.787Z,4.40
2018-06-12T00:30:51.338Z,4.47
2018-06-12T00:33:19.104Z,4.10
2018-06-12T00:35:46.692Z,4.30
2018-06-12T00:38:14.239Z,3.73
2018-06-12T00:40:42.334Z,4.37
2018-06-12T00:43:10.283Z,3.93
2018-06-12T00:45:37.912Z,4.20
2018-06-12T00:48:05.576Z,4.07
2018-06-12T00:50:33.132Z,3.80
2018-06-12T00:53:00.746Z,3.93
2018-06-12T00:55:28.387Z,3.90
2018-06-12T00:57:55.924Z,4.03
2018-06-12T01:00:23.549Z,3.80
2018-06-12T01:02:51.207Z,3.77
2018-06-12T01:05:18.787Z,4.27
2018-06-12T01:07:46.339Z,3.97
2018-06-12T01:10:13.907Z,4.30
2018-06-12T01:12:41.586Z,4.13
2018-06-12T01:15:09.251Z,4.03
2018-06-12T01:17:36.830Z,3.53
2018-06-12T01:20:04.456Z,4.00
2018-06-12T01:22:32.077Z,3.50
2018-06-12T01:24:59.818Z,3.87
2018-06-12T01:27:27.383Z,3.43
2018-06-12T01:29:54.968Z,3.77
2018-06-12T01:32:22.539Z,3.17
2018-06-12T01:34:50.092Z,3.63
2018-06-12T01:37:17.771Z,3.30
2018-06-12T01:39:45.375Z,3.77
2018-06-12T01:42:12.944Z,3.60
2018-06-12T01:44:40.533Z,3.87
2018-06-12T01:47:08.231Z,3.13
2018-06-12T01:49:35.776Z,3.83
2018-06-12T01:52:03.334Z,3.50
2018-06-12T01:54:30.949Z,3.63
2018-06-12T01:56:58.596Z,3.37
2018-06-12T01:59:26.379Z,3.40
2018-06-12T02:01:54.022Z,3.37
2018-06-12T02:04:21.738Z,3.27
2018-06-12T02:06:51.480Z,3.13
2018-06-12T02:09:19.442Z,3.10
2018-06-12T02:11:47.123Z,2.97
2018-06-12T02:14:14.690Z,3.07
2018-06-12T02:16:42.308Z,3.40
2018-06-12T02:19:09.988Z,3.13
2018-06-12T02:21:37.564Z,3.33
2018-06-12T02:24:05.307Z,3.17
2018-06-12T02:26:32.898Z,3.17
2018-06-12T02:29:00.476Z,3.30
2018-06-12T02:31:28.024Z,3.50
2018-06-12T02:33:55.625Z,3.70
2018-06-12T02:36:23.217Z,4.00
2018-06-12T02:38:50.839Z,3.63
2018-06-12T02:41:18.414Z,3.70
2018-06-12T02:43:45.988Z,3.60
2018-06-12T02:46:13.631Z,4.40
2018-06-12T02:48:41.237Z,3.73
2018-06-12T02:51:08.883Z,4.30
2018-06-12T02:53:36.459Z,4.23
2018-06-12T02:56:04.305Z,4.60
2018-06-12T02:58:31.897Z,4.37
2018-06-12T03:00:59.465Z,4.60
2018-06-12T03:03:27.126Z,4.87
2018-06-12T03:05:55.053Z,4.47
2018-06-12T03:08:22.641Z,4.40
2018-06-12T03:10:50.224Z,4.97
2018-06-12T03:13:17.860Z,4.23
2018-06-12T03:15:45.524Z,4.47
2018-06-12T03:18:13.112Z,4.70
2018-06-12T03:20:44.109Z,4.23
2018-06-12T03:23:11.716Z,4.30
2018-06-12T03:25:39.387Z,4.10
2018-06-12T03:28:07.323Z,4.27
2018-06-12T03:30:34.925Z,4.37
2018-06-12T03:33:02.519Z,4.33
2018-06-12T03:35:30.083Z,4.23
2018-06-12T03:37:57.699Z,4.33
2018-06-12T03:40:25.289Z,4.13
2018-06-12T03:42:52.934Z,4.60
2018-06-12T03:45:20.550Z,3.80
2018-06-12T03:47:48.144Z,4.10
2018-06-12T03:50:15.820Z,3.70
2018-06-12T03:52:43.415Z,3.90
2018-06-12T03:55:11.091Z,4.10
2018-06-12T03:57:38.765Z,3.70
2018-06-12T04:00:06.463Z,3.97
2018-06-12T04:02:34.249Z,3.87
2018-06-12T04:05:01.945Z,4.10
2018-06-12T04:07:29.751Z,4.17
2018-06-12T04:09:57.352Z,3.57
2018-06-12T04:12:24.988Z,3.23
2018-06-12T04:14:52.740Z,3.43
2018-06-12T04:17:20.392Z,3.47
2018-06-12T04:19:47.971Z,3.80
2018-06-12T04:22:15.529Z,3.70
2018-06-12T04:24:43.161Z,3.70
2018-06-12T04:27:10.785Z,3.53
2018-06-12T04:29:38.443Z,4.00
2018-06-12T04:32:06.068Z,3.30
2018-06-12T04:34:33.635Z,3.27
2018-06-12T04:37:01.219Z,3.63
2018-06-12T04:39:28.800Z,3.63
2018-06-12T04:41:56.435Z,3.67
2018-06-12T04:44:24.036Z,3.33
2018-06-12T04:46:51.673Z,3.13
2018-06-12T04:49:19.344Z,3.37
2018-06-12T04:51:46.973Z,3.43
2018-06-12T04:54:14.545Z,3.20
2018-06-12T04:56:42.184Z,3.00
2018-06-12T04:59:09.816Z,4.00
2018-06-12T05:01:38.033Z,3.07
2018-06-12T05:04:05.646Z,3.00
2018-06-12T05:06:33.251Z,3.10
2018-06-12T05:09:00.868Z,3.07
2018-06-12T05:11:28.484Z,3.40
2018-06-12T05:13:56.130Z,2.60
2018-06-12T05:16:23.760Z,3.40
2018-06-12T05:18:51.390Z,3.10
2018-06-12T05:21:19.100Z,3.13
2018-06-12T05:23:46.732Z,3.23
2018-06-12T05:26:14.341Z,2.80
2018-06-12T05:28:41.917Z,3.17
2018-06-12T05:31:09.534Z,3.13
2018-06-12T05:33:38.132Z,2.83
2018-06-12T05:36:05.711Z,3.37
2018-06-12T05:38:33.382Z,3.20
2018-06-12T05:41:01.000Z,2.87
2018-06-12T06:03:10.334Z,3.30
2018-06-12T06:05:38.852Z,2.87
2018-06-12T06:08:06.461Z,2.87
2018-06-12T06:10:34.072Z,3.20
2018-06-12T06:13:01.830Z,3.03
2018-06-12T06:15:29.416Z,2.87
2018-06-12T06:17:57.203Z,3.30
2018-06-12T06:20:24.809Z,2.93
2018-06-12T06:22:52.400Z,3.03
2018-06-12T06:25:20.017Z,3.13
2018-06-12T06:27:47.649Z,3.47
2018-06-12T06:30:15.314Z,3.00
2018-06-12T06:32:42.916Z,2.73
2018-06-12T06:35:10.516Z,3.07
2018-06-12T06:37:38.106Z,3.20
2018-06-12T06:40:05.751Z,2.83
2018-06-12T06:42:33.402Z,3.30
2018-06-12T06:45:01.036Z,3.30
2018-06-12T06:47:28.768Z,3.23
2018-06-12T06:49:56.364Z,2.77
2018-06-12T06:52:24.079Z,3.40
2018-06-12T06:54:51.744Z,3.47
2018-06-12T06:57:19.403Z,3.40
2018-06-12T06:59:47.042Z,3.47
2018-06-12T07:02:14.632Z,3.23
2018-06-12T07:04:42.239Z,3.40
2018-06-12T07:07:10.110Z,3.10
2018-06-12T07:09:37.724Z,3.33
2018-06-12T07:12:05.401Z,2.90
2018-06-12T07:14:33.265Z,3.97
2018-06-12T07:17:00.983Z,3.73
2018-06-12T07:19:28.699Z,3.47
2018-06-12T07:21:56.255Z,3.20
2018-06-12T07:24:23.913Z,2.97
2018-06-12T07:26:51.573Z,3.47
2018-06-12T07:29:19.357Z,3.40
2018-06-12T07:31:46.967Z,3.40
2018-06-12T07:34:14.566Z,3.33
2018-06-12T07:36:42.195Z,3.27
2018-06-12T07:39:09.792Z,3.07
2018-06-12T07:41:37.875Z,3.30
2018-06-12T07:44:06.499Z,3.47
2018-06-12T07:46:34.073Z,3.60
2018-06-12T07:49:01.741Z,3.90
2018-06-12T07:51:29.353Z,3.30
2018-06-12T07:53:56.959Z,3.20
2018-06-12T07:56:24.574Z,3.30
2018-06-12T07:58:52.239Z,3.57
2018-06-12T08:01:19.844Z,3.20
2018-06-12T08:03:47.496Z,3.43
2018-06-12T08:06:15.113Z,3.70
2018-06-12T08:08:42.675Z,3.60
2018-06-12T08:11:10.284Z,3.00
2018-06-12T08:13:37.865Z,3.47
2018-06-12T08:16:05.472Z,3.90
2018-06-12T08:18:33.103Z,3.37
2018-06-12T08:21:00.692Z,3.70
2018-06-12T08:23:28.300Z,4.03
2018-06-12T08:25:55.875Z,3.70
2018-06-12T08:28:23.543Z,3.63
2018-06-12T08:30:51.130Z,3.57
2018-06-12T08:33:18.741Z,3.67
2018-06-12T08:35:46.323Z,4.10
2018-06-12T08:38:13.912Z,3.73
2018-06-12T08:40:41.483Z,4.90
2018-06-12T08:43:09.440Z,4.10
2018-06-12T08:45:37.097Z,4.00
2018-06-12T08:48:04.864Z,3.90
2018-06-12T08:50:32.556Z,4.50
2018-06-12T08:53:00.240Z,4.23
2018-06-12T08:55:27.843Z,4.33
2018-06-12T08:57:55.472Z,4.10
2018-06-12T09:00:23.098Z,4.03
2018-06-12T09:02:50.684Z,4.23
2018-06-12T09:05:18.256Z,4.20
2018-06-12T09:07:45.966Z,4.63
2018-06-12T09:10:13.568Z,4.30
2018-06-12T09:12:41.172Z,4.40
2018-06-12T09:15:08.762Z,5.03
2018-06-12T09:17:36.379Z,4.60
2018-06-12T09:20:04.156Z,4.53
2018-06-12T09:22:31.790Z,4.90
2018-06-12T09:24:59.917Z,4.47
2018-06-12T09:27:27.542Z,4.70
2018-06-12T09:29:55.136Z,4.43
2018-06-12T09:32:22.713Z,4.70
2018-06-12T09:34:50.288Z,5.10
2018-06-12T09:37:17.887Z,4.83
2018-06-12T09:39:45.568Z,4.77
2018-06-12T09:42:14.228Z,5.07
2018-06-12T09:44:41.789Z,5.03
2018-06-12T09:47:09.387Z,4.53
2018-06-12T09:49:36.970Z,5.20
2018-06-12T09:52:04.628Z,5.03
2018-06-12T09:54:32.300Z,4.93
2018-06-12T09:56:59.964Z,5.20
2018-06-12T09:59:27.604Z,4.53
2018-06-12T10:01:55.187Z,5.30
2018-06-12T10:04:22.827Z,4.27
2018-06-12T10:06:50.448Z,4.30
2018-06-12T10:09:18.072Z,4.73
2018-06-12T10:11:45.696Z,4.60
2018-06-12T10:14:13.287Z,5.10
2018-06-12T10:16:40.872Z,4.80
2018-06-12T10:19:08.459Z,4.73
2018-06-12T10:21:36.016Z,4.40
2018-06-12T10:24:03.756Z,4.63
2018-06-12T10:26:31.355Z,4.97
2018-06-12T10:28:58.969Z,4.80
2018-06-12T10:31:26.637Z,4.73
2018-06-12T10:33:54.209Z,5.53
2018-06-12T10:36:21.830Z,5.53
2018-06-12T10:38:49.682Z,5.10
2018-06-12T10:41:17.301Z,4.67
2018-06-12T10:43:44.958Z,4.10
2018-06-12T10:46:12.608Z,5.57
2018-06-12T10:48:40.240Z,4.70
2018-06-12T10:51:07.944Z,5.20
2018-06-12T10:53:35.509Z,5.47
2018-06-12T10:56:03.175Z,5.10
2018-06-12T10:58:30.743Z,4.63
2018-06-12T11:00:58.372Z,5.03
2018-06-12T11:03:26.001Z,5.00
2018-06-12T11:05:53.696Z,5.13
2018-06-12T11:08:21.271Z,5.00
2018-06-12T11:10:48.878Z,5.20
2018-06-12T11:13:16.504Z,4.90
2018-06-12T11:15:44.088Z,5.13
2018-06-12T11:18:11.739Z,4.77
2018-06-12T11:20:39.328Z,5.10
2018-06-12T11:23:06.935Z,4.87
2018-06-12T11:25:34.516Z,5.40
2018-06-12T11:28:02.232Z,5.53
2018-06-12T11:33:04.304Z,4.70
2018-06-12T11:35:31.810Z,4.87
2018-06-12T11:37:59.367Z,4.97
2018-06-12T11:40:27.784Z,5.37
2018-06-12T11:42:55.351Z,4.43
2018-06-12T11:45:22.988Z,4.43
2018-06-12T11:47:50.573Z,5.53
2018-06-12T11:50:18.979Z,4.93
2018-06-12T11:52:46.604Z,5.03
2018-06-12T11:55:20.300Z,5.40
2018-06-12T11:57:47.895Z,5.93
2018-06-12T12:00:15.533Z,4.87
2018-06-12T12:02:43.144Z,4.67
2018-06-12T12:05:10.714Z,5.00
2018-06-12T12:07:38.389Z,4.83
2018-06-12T12:10:05.996Z,4.63
2018-06-12T12:12:33.859Z,4.80
2018-06-12T12:15:01.501Z,4.40
2018-06-12T12:17:29.055Z,4.47
2018-06-12T12:19:56.665Z,4.27
2018-06-12T12:22:24.228Z,4.63
2018-06-12T12:24:51.856Z,4.10
2018-06-12T12:27:19.435Z,4.23
2018-06-12T12:29:47.302Z,4.10
2018-06-12T12:32:14.885Z,4.23
2018-06-12T12:34:42.512Z,5.20
2018-06-12T12:37:10.076Z,4.20
2018-06-12T12:39:37.639Z,4.37
2018-06-12T12:42:05.215Z,4.80
2018-06-12T12:44:32.768Z,3.63
2018-06-12T12:47:00.328Z,3.53
2018-06-12T12:49:27.895Z,3.97
2018-06-12T12:51:55.513Z,3.63
2018-06-12T12:54:23.041Z,3.57
2018-06-12T12:56:50.661Z,2.90
2018-06-12T12:59:18.292Z,2.97
2018-06-12T13:01:45.903Z,2.80
2018-06-12T13:04:13.888Z,2.30
2018-06-12T13:06:41.484Z,2.67
2018-06-12T13:09:09.113Z,2.90
2018-06-12T13:11:36.779Z,2.73
2018-06-12T13:14:04.405Z,2.90
2018-06-12T13:16:31.964Z,2.50
2018-06-12T13:18:59.615Z,2.60
2018-06-12T13:21:27.210Z,2.77
2018-06-12T13:23:54.768Z,3.00
2018-06-12T13:26:22.344Z,3.73
2018-06-12T13:28:49.905Z,3.57
2018-06-12T13:31:17.511Z,3.50
2018-06-12T13:33:45.110Z,3.40
2018-06-12T13:36:13.385Z,3.03
2018-06-12T13:38:41.582Z,3.30
2018-06-12T13:41:09.374Z,3.20
2018-06-12T13:43:37.004Z,2.37
2018-06-12T13:46:04.979Z,2.83
2018-06-12T13:48:32.720Z,2.53
2018-06-12T13:51:00.393Z,2.80
2018-06-12T13:53:28.226Z,2.70
2018-06-12T13:55:55.849Z,2.40
2018-06-12T13:58:23.791Z,2.13
2018-06-12T14:00:51.435Z,2.90
2018-06-12T14:03:18.992Z,2.70
2018-06-12T14:05:47.520Z,2.60
2018-06-12T14:08:15.422Z,2.57
2018-06-12T14:10:43.346Z,2.87
2018-06-12T14:13:11.010Z,2.77
2018-06-12T14:15:38.730Z,2.47
2018-06-12T14:18:06.352Z,2.83
2018-06-12T14:20:33.903Z,2.83
2018-06-12T14:23:01.630Z,3.10
2018-06-12T14:25:29.335Z,3.03
2018-06-12T14:27:56.988Z,3.50
2018-06-12T14:30:24.569Z,3.43
2018-06-12T14:32:52.113Z,3.60
2018-06-12T14:35:19.689Z,3.77
2018-06-12T14:37:48.053Z,3.70
2018-06-12T14:40:15.706Z,3.20
2018-06-12T14:42:43.257Z,3.00
2018-06-12T14:45:10.882Z,2.53
2018-06-12T14:47:38.465Z,2.23
2018-06-12T14:50:06.059Z,2.10
2018-06-12T14:52:33.688Z,2.60
2018-06-12T14:55:01.275Z,2.23
2018-06-12T14:57:28.860Z,2.60
2018-06-12T14:59:56.497Z,2.47
2018-06-12T15:02:24.167Z,2.50
2018-06-12T15:04:51.752Z,2.27
2018-06-12T15:07:19.335Z,2.53
2018-06-12T15:09:46.992Z,3.00
2018-06-12T15:12:14.557Z,2.47
2018-06-12T15:14:42.131Z,3.00
2018-06-12T15:17:09.728Z,2.47
2018-06-12T15:19:37.419Z,2.40
2018-06-12T15:22:05.014Z,2.47
2018-06-12T15:24:32.756Z,2.57
2018-06-12T15:27:00.377Z,2.23
2018-06-12T15:29:28.103Z,2.30
2018-06-12T15:31:55.706Z,2.30
2018-06-12T15:34:23.317Z,2.53
2018-06-12T15:36:50.905Z,2.30
2018-06-12T15:39:19.834Z,2.57
2018-06-12T15:41:47.508Z,2.23
2018-06-12T15:44:15.092Z,2.40
2018-06-12T15:46:42.696Z,2.43
2018-06-12T15:49:10.328Z,2.90
2018-06-12T15:51:37.986Z,2.47
2018-06-12T15:54:05.996Z,2.40
2018-06-12T15:56:33.789Z,2.20
2018-06-12T15:59:01.452Z,2.47
2018-06-12T16:01:29.072Z,2.27
2018-06-12T16:03:56.667Z,2.47
2018-06-12T16:06:24.360Z,2.37
2018-06-12T16:08:51.956Z,2.40
2018-06-12T16:11:19.596Z,2.40
2018-06-12T16:13:47.187Z,1.87
2018-06-12T16:16:14.790Z,2.10
2018-06-12T16:18:42.383Z,2.13
2018-06-12T16:21:10.017Z,2.13
2018-06-12T16:23:37.591Z,2.13
2018-06-12T16:26:05.281Z,1.90
2018-06-12T16:28:32.892Z,2.00
2018-06-12T16:31:00.497Z,1.93
2018-06-12T16:33:28.146Z,1.83
2018-06-12T16:35:55.795Z,2.20
2018-06-12T16:38:23.408Z,2.10
2018-06-12T16:40:51.329Z,1.87
2018-06-12T16:43:18.976Z,1.80
2018-06-12T16:45:46.628Z,1.83
2018-06-12T16:48:14.240Z,2.03
2018-06-12T16:50:41.857Z,1.87
2018-06-12T16:53:09.451Z,1.90
2018-06-12T16:55:37.037Z,1.97
2018-06-12T16:58:04.716Z,1.57
2018-06-12T17:00:32.396Z,2.03
2018-06-12T17:02:59.999Z,1.80
2018-06-12T17:05:27.960Z,1.77
2018-06-12T17:07:55.613Z,1.90
2018-06-12T17:10:23.257Z,1.70
2018-06-12T17:12:50.963Z,1.90
2018-06-12T17:15:18.548Z,1.73
2018-06-12T17:17:46.274Z,1.90
2018-06-12T17:20:13.964Z,1.70
2018-06-12T17:22:41.624Z,1.77
2018-06-12T17:25:09.299Z,1.47
2018-06-12T17:27:36.992Z,1.93
2018-06-12T17:30:05.296Z,1.70
2018-06-12T17:32:32.972Z,1.83
2018-06-12T17:35:00.628Z,1.73
2018-06-12T17:37:28.328Z,1.43
2018-06-12T17:39:55.983Z,1.50
2018-06-12T17:42:23.793Z,1.53
2018-06-12T17:44:51.475Z,1.80
2018-06-12T17:47:19.200Z,1.53
2018-06-12T17:49:46.883Z,1.83
2018-06-12T17:52:14.487Z,1.70
2018-06-12T17:54:42.245Z,1.60
2018-06-12T17:57:09.853Z,1.30
2018-06-12T17:59:37.474Z,1.83
2018-06-12T18:02:05.693Z,1.60
2018-06-12T18:04:33.276Z,1.73
2018-06-12T18:07:00.925Z,1.70
2018-06-12T18:09:28.573Z,1.90
2018-06-12T18:11:56.221Z,1.53
2018-06-12T18:14:23.931Z,1.47
2018-06-12T18:16:51.567Z,1.53
2018-06-12T18:19:19.207Z,1.77
2018-06-12T18:21:46.896Z,1.67
2018-06-12T18:24:14.616Z,1.60
2018-06-12T18:26:42.404Z,1.80
2018-06-12T18:29:10.055Z,1.90
2018-06-12T18:31:37.728Z,1.90
2018-06-12T18:34:05.429Z,1.73
2018-06-12T18:36:33.107Z,1.80
2018-06-12T18:39:00.750Z,1.73
2018-06-12T18:41:28.366Z,1.70
2018-06-12T18:43:56.382Z,1.70
2018-06-12T18:46:24.383Z,1.87
2018-06-12T18:48:52.125Z,1.77
2018-06-12T18:51:19.757Z,1.60
2018-06-12T18:53:47.452Z,2.10
2018-06-12T18:56:15.076Z,2.23
2018-06-12T18:58:42.696Z,2.00
2018-06-12T19:01:10.292Z,1.70
2018-06-12T19:03:37.976Z,2.13
2018-06-12T19:06:06.502Z,1.70
2018-06-12T19:08:34.185Z,1.60
2018-06-12T19:11:01.842Z,1.60
2018-06-12T19:13:29.577Z,1.67
2018-06-12T19:15:57.235Z,1.67
2018-06-12T19:18:25.134Z,1.50
2018-06-12T19:20:53.124Z,1.70
2018-06-12T19:23:20.729Z,1.80
2018-06-12T19:25:48.336Z,1.80
2018-06-12T19:28:16.016Z,1.73
2018-06-12T19:30:43.707Z,1.50
2018-06-12T19:33:11.340Z,1.60
2018-06-12T19:35:38.937Z,1.70
2018-06-12T19:38:06.641Z,1.90
2018-06-12T19:40:34.272Z,1.83
2018-06-12T19:43:01.935Z,1.97
2018-06-12T19:45:29.926Z,2.10
2018-06-12T19:47:57.527Z,1.57
2018-06-12T19:50:25.107Z,1.80
2018-06-12T19:52:52.757Z,1.80
2018-06-12T19:55:20.381Z,1.97
2018-06-12T19:57:48.040Z,2.00
2018-06-12T20:00:15.715Z,2.30
2018-06-12T20:02:43.308Z,2.33
2018-06-12T20:05:10.957Z,2.00
2018-06-12T20:07:38.652Z,1.80
2018-06-12T20:10:06.352Z,1.63
2018-06-12T20:12:33.959Z,1.80
2018-06-12T20:15:01.642Z,1.60
2018-06-12T20:17:29.235Z,1.60
2018-06-12T20:19:56.875Z,1.70
2018-06-12T20:22:24.504Z,1.90
2018-06-12T20:24:52.146Z,1.70
2018-06-12T20:27:19.759Z,1.77
2018-06-12T20:29:47.355Z,2.00
2018-06-12T20:32:15.049Z,1.97
2018-06-12T20:34:42.655Z,1.73
2018-06-12T20:37:10.252Z,1.60
2018-06-12T20:39:37.907Z,2.03
2018-06-12T20:42:05.618Z,1.77
2018-06-12T20:44:33.239Z,2.00
2018-06-12T20:47:00.815Z,1.73
2018-06-12T20:49:28.475Z,1.63
2018-06-12T20:51:56.173Z,1.73
2018-06-12T20:54:23.803Z,2.03
2018-06-12T20:56:51.436Z,2.20
2018-06-12T20:59:19.056Z,1.60
2018-06-12T21:01:46.711Z,1.97
2018-06-12T21:04:14.368Z,1.90
2018-06-12T21:06:42.082Z,2.00
2018-06-12T21:09:09.714Z,1.83
2018-06-12T21:11:37.327Z,1.80
2018-06-12T21:14:05.009Z,1.80
2018-06-12T21:16:33.080Z,1.90
2018-06-12T21:19:00.679Z,1.70
2018-06-12T21:21:28.361Z,1.97
2018-06-12T21:23:56.020Z,1.53
2018-06-12T21:26:23.594Z,1.63
2018-06-12T21:28:51.252Z,1.73
2018-06-12T21:31:18.844Z,1.80
2018-06-12T21:33:46.493Z,1.90
2018-06-12T21:36:14.155Z,1.70
2018-06-12T21:38:41.808Z,1.77
2018-06-12T21:41:09.449Z,2.07
2018-06-12T21:43:37.128Z,1.77
2018-06-12T21:46:05.251Z,1.93
2018-06-12T21:48:32.891Z,1.60
2018-06-12T21:51:00.568Z,1.80
2018-06-12T21:53:28.267Z,1.57
2018-06-12T21:55:55.887Z,1.80
2018-06-12T21:58:23.487Z,1.83
2018-06-12T22:00:51.068Z,2.07
2018-06-12T22:03:18.765Z,1.70
2018-06-12T22:05:46.328Z,1.80
2018-06-12T22:08:14.813Z,1.80
2018-06-12T22:10:42.417Z,1.70
2018-06-12T22:13:10.020Z,1.60
2018-06-12T22:15:37.697Z,1.70
2018-06-12T22:18:06.256Z,1.90
2018-06-12T22:20:33.905Z,1.50
2018-06-12T22:23:01.524Z,1.73
2018-06-12T22:25:29.176Z,1.70
2018-06-12T22:27:56.805Z,1.60
2018-06-12T22:30:24.448Z,1.97
2018-06-12T22:32:52.055Z,1.57
2018-06-12T22:35:19.767Z,2.10
2018-06-12T22:37:47.427Z,2.03
2018-06-12T22:40:14.987Z,1.67
2018-06-12T22:42:42.637Z,1.87
2018-06-12T22:45:10.241Z,1.53
2018-06-12T22:47:37.847Z,1.73
2018-06-12T22:50:05.510Z,1.70
2018-06-12T22:52:33.109Z,1.70
2018-06-12T22:55:00.742Z,1.77
2018-06-12T22:57:28.319Z,1.70
2018-06-12T22:59:55.978Z,1.50
2018-06-12T23:02:23.595Z,1.70
2018-06-12T23:04:51.167Z,1.73
2018-06-12T23:07:18.797Z,1.70
2018-06-12T23:09:46.435Z,1.80
2018-06-12T23:12:14.011Z,1.80
2018-06-12T23:14:41.631Z,2.00
2018-06-12T23:17:09.235Z,1.90
2018-06-12T23:19:54.818Z,1.77
2018-06-12T23:22:22.368Z,2.10
2018-06-12T23:24:49.991Z,2.10
2018-06-12T23:27:17.575Z,1.77
2018-06-12T23:29:45.203Z,2.07
2018-06-12T23:32:12.808Z,1.60
2018-06-12T23:34:40.396Z,1.97
2018-06-12T23:37:08.089Z,2.13
2018-06-12T23:39:35.737Z,2.17
2018-06-12T23:42:03.413Z,2.00
2018-06-12T23:44:30.967Z,1.87
2018-06-12T23:46:58.565Z,1.93
2018-06-12T23:49:26.151Z,2.07
2018-06-12T23:51:53.869Z,2.30
2018-06-12T23:54:21.449Z,2.27
2018-06-12T23:56:49.141Z,2.20
2018-06-12T23:59:16.752Z,2.10
